createdAt,value
2023-03-17T00:01:20.139Z,3.20
2023-03-17T00:03:47.191Z,2.73
2023-03-17T00:06:24.770Z,2.87
2023-03-17T00:08:50.858Z,3.03
2023-03-17T00:11:17.570Z,3.03
2023-03-17T00:13:44.310Z,3.50
2023-03-17T00:16:14.983Z,3.17
2023-03-17T00:18:41.311Z,3.10
2023-03-17T00:21:12.062Z,3.60
2023-03-17T00:23:38.926Z,3.17
2023-03-17T00:26:04.976Z,3.03
2023-03-17T00:28:31.033Z,3.30
2023-03-17T00:31:00.908Z,2.90
2023-03-17T00:33:30.008Z,3.17
2023-03-17T00:35:56.926Z,3.00
2023-03-17T00:38:25.957Z,3.23
2023-03-17T00:40:52.096Z,3.20
2023-03-17T00:43:18.190Z,3.13
2023-03-17T00:45:44.334Z,3.33
2023-03-17T00:48:19.042Z,3.37
2023-03-17T00:50:46.910Z,3.00
2023-03-17T00:53:16.017Z,2.97
2023-03-17T00:55:43.897Z,3.00
2023-03-17T00:58:14.144Z,2.67
2023-03-17T01:00:40.354Z,3.10
2023-03-17T01:03:10.679Z,2.90
2023-03-17T01:05:37.990Z,3.13
2023-03-17T01:08:04.487Z,3.10
2023-03-17T01:10:31.120Z,3.10
2023-03-17T01:12:58.651Z,3.47
2023-03-17T01:15:29.344Z,3.43
2023-03-17T01:17:56.543Z,3.40
2023-03-17T01:20:27.018Z,2.70
2023-03-17T01:22:53.165Z,3.17
2023-03-17T01:25:19.635Z,3.50
2023-03-17T01:27:46.594Z,2.70
2023-03-17T01:30:18.797Z,3.23
2023-03-17T01:32:44.960Z,3.40
2023-03-17T01:35:11.926Z,3.30
2023-03-17T01:37:38.694Z,3.40
2023-03-17T01:40:06.282Z,3.17
2023-03-17T01:42:32.686Z,3.47
2023-03-17T01:45:04.963Z,3.50
2023-03-17T01:47:31.401Z,3.47
2023-03-17T01:50:05.558Z,3.13
2023-03-17T01:52:33.670Z,3.53
2023-03-17T01:55:09.886Z,3.30
2023-03-17T01:57:44.882Z,3.27
2023-03-17T02:00:15.522Z,3.70
2023-03-17T02:02:44.761Z,3.93
2023-03-17T02:05:16.297Z,3.30
2023-03-17T02:07:42.480Z,3.60
2023-03-17T02:10:09.300Z,3.40
2023-03-17T02:12:35.891Z,3.33
2023-03-17T02:15:02.639Z,3.63
2023-03-17T02:17:29.028Z,3.47
2023-03-17T02:19:55.613Z,3.90
2023-03-17T02:22:21.676Z,4.17
2023-03-17T02:24:47.743Z,4.50
2023-03-17T02:27:47.454Z,3.53
2023-03-17T02:30:18.640Z,4.13
2023-03-17T02:32:44.732Z,3.70
2023-03-17T02:35:11.110Z,3.63
2023-03-17T02:37:37.788Z,3.60
2023-03-17T02:40:05.354Z,3.70
2023-03-17T02:42:32.499Z,3.77
2023-03-17T02:44:58.669Z,3.67
2023-03-17T02:47:24.974Z,3.97
2023-03-17T02:49:51.231Z,3.63
2023-03-17T02:52:17.339Z,3.87
2023-03-17T02:54:43.405Z,3.70
2023-03-17T02:57:09.711Z,4.07
2023-03-17T02:59:36.357Z,3.57
2023-03-17T03:02:02.464Z,3.37
2023-03-17T03:04:28.872Z,3.57
2023-03-17T03:06:56.267Z,3.60
2023-03-17T03:09:22.488Z,4.10
2023-03-17T03:11:48.604Z,3.37
2023-03-17T03:14:15.274Z,3.37
2023-03-17T03:16:42.733Z,3.60
2023-03-17T03:19:09.142Z,3.60
2023-03-17T03:21:36.003Z,3.40
2023-03-17T03:24:02.932Z,3.40
2023-03-17T03:26:29.046Z,4.20
2023-03-17T03:28:56.715Z,3.73
2023-03-17T03:31:22.884Z,3.40
2023-03-17T03:33:49.201Z,3.00
2023-03-17T03:36:15.506Z,3.77
2023-03-17T03:38:41.903Z,4.10
2023-03-17T03:41:08.487Z,3.70
2023-03-17T03:43:35.174Z,3.37
2023-03-17T03:46:01.865Z,3.37
2023-03-17T03:48:28.086Z,3.70
2023-03-17T03:50:59.034Z,3.40
2023-03-17T03:53:25.651Z,3.27
2023-03-17T03:55:52.046Z,3.73
2023-03-17T03:58:18.207Z,3.50
2023-03-17T04:00:44.935Z,3.57
2023-03-17T04:03:11.762Z,3.40
2023-03-17T04:05:37.962Z,3.90
2023-03-17T04:08:04.472Z,3.40
2023-03-17T04:10:30.990Z,3.40
2023-03-17T04:12:57.154Z,3.50
2023-03-17T04:15:23.600Z,3.93
2023-03-17T04:17:49.721Z,3.40
2023-03-17T04:20:16.337Z,3.23
2023-03-17T04:22:43.031Z,3.87
2023-03-17T04:25:10.986Z,3.73
2023-03-17T04:27:37.447Z,3.23
2023-03-17T04:30:04.333Z,3.50
2023-03-17T04:32:30.784Z,3.40
2023-03-17T04:34:57.790Z,3.30
2023-03-17T04:37:24.507Z,3.10
2023-03-17T04:39:51.510Z,3.50
2023-03-17T04:42:17.641Z,3.40
2023-03-17T04:44:43.863Z,3.00
2023-03-17T04:47:10.227Z,3.93
2023-03-17T04:49:36.396Z,3.57
2023-03-17T04:52:02.705Z,3.33
2023-03-17T04:54:28.784Z,2.93
2023-03-17T04:56:55.474Z,3.10
2023-03-17T04:59:21.551Z,3.07
2023-03-17T05:01:47.626Z,4.10
2023-03-17T05:04:25.303Z,4.73
2023-03-17T05:06:57.535Z,4.33
2023-03-17T05:09:24.639Z,2.90
2023-03-17T05:11:51.116Z,3.50
2023-03-17T05:14:17.326Z,2.83
2023-03-17T05:16:46.551Z,3.43
2023-03-17T05:19:12.656Z,3.53
2023-03-17T05:21:39.289Z,3.23
2023-03-17T05:24:05.798Z,3.07
2023-03-17T05:26:32.344Z,5.03
2023-03-17T05:28:58.421Z,3.67
2023-03-17T05:31:24.545Z,3.13
2023-03-17T05:33:50.704Z,3.40
2023-03-17T05:36:17.148Z,3.37
2023-03-17T05:38:43.821Z,3.23
2023-03-17T05:41:10.409Z,3.30
2023-03-17T05:43:36.736Z,3.27
2023-03-17T05:46:03.436Z,3.40
2023-03-17T05:48:29.746Z,2.87
2023-03-17T05:50:55.806Z,3.30
2023-03-17T05:53:22.846Z,3.30
2023-03-17T05:55:48.963Z,4.57
2023-03-17T05:58:16.063Z,2.93
2023-03-17T06:00:42.993Z,3.20
2023-03-17T06:03:09.311Z,3.50
2023-03-17T06:05:35.983Z,3.47
2023-03-17T06:08:02.188Z,3.20
2023-03-17T06:10:28.372Z,3.80
2023-03-17T06:12:54.967Z,3.27
2023-03-17T06:15:21.039Z,3.73
2023-03-17T06:17:47.092Z,6.27
2023-03-17T06:20:13.574Z,3.73
2023-03-17T06:22:51.604Z,3.60
2023-03-17T06:25:21.467Z,3.50
2023-03-17T06:27:47.668Z,3.63
2023-03-17T06:30:13.942Z,2.83
2023-03-17T06:32:40.084Z,3.33
2023-03-17T06:35:06.825Z,2.90
2023-03-17T06:37:33.491Z,3.60
2023-03-17T06:40:00.456Z,5.07
2023-03-17T06:42:27.280Z,3.30
2023-03-17T06:44:53.399Z,3.40
2023-03-17T06:47:19.578Z,3.10
2023-03-17T06:49:45.825Z,3.23
2023-03-17T06:52:12.794Z,3.27
2023-03-17T06:54:39.181Z,3.03
2023-03-17T06:57:05.323Z,3.07
2023-03-17T06:59:31.548Z,3.17
2023-03-17T07:01:58.757Z,2.77
2023-03-17T07:04:24.964Z,4.70
2023-03-17T07:06:51.264Z,2.97
2023-03-17T07:09:17.456Z,3.10
2023-03-17T07:11:43.558Z,3.00
2023-03-17T07:14:09.715Z,2.77
2023-03-17T07:16:36.890Z,3.60
2023-03-17T07:19:03.023Z,2.37
2023-03-17T07:21:29.108Z,3.30
2023-03-17T07:23:55.477Z,2.70
2023-03-17T07:26:21.616Z,3.23
2023-03-17T07:28:47.770Z,3.60
2023-03-17T07:31:14.346Z,3.43
2023-03-17T07:33:40.599Z,3.30
2023-03-17T07:36:08.329Z,2.50
2023-03-17T07:38:34.484Z,3.00
2023-03-17T07:41:00.672Z,3.20
2023-03-17T07:43:26.813Z,3.10
2023-03-17T07:45:52.998Z,2.80
2023-03-17T07:48:19.115Z,3.37
2023-03-17T07:50:45.273Z,2.90
2023-03-17T07:53:11.383Z,3.00
2023-03-17T07:55:38.235Z,3.33
2023-03-17T07:58:05.344Z,3.00
2023-03-17T08:00:31.898Z,3.30
2023-03-17T08:03:09.271Z,3.27
2023-03-17T08:05:36.922Z,3.17
2023-03-17T08:08:04.567Z,3.37
2023-03-17T08:10:31.430Z,3.03
2023-03-17T08:12:57.694Z,2.40
2023-03-17T08:15:23.794Z,2.80
2023-03-17T08:17:50.088Z,3.30
2023-03-17T08:20:16.359Z,3.00
2023-03-17T08:22:43.371Z,3.00
2023-03-17T08:25:10.873Z,3.27
2023-03-17T08:27:37.079Z,2.87
2023-03-17T08:30:03.636Z,3.47
2023-03-17T08:32:29.786Z,3.10
2023-03-17T08:34:55.981Z,3.77
2023-03-17T08:37:23.917Z,3.70
2023-03-17T08:39:50.403Z,2.93
2023-03-17T08:42:16.528Z,3.50
2023-03-17T08:44:44.162Z,3.20
2023-03-17T08:47:10.315Z,3.70
2023-03-17T08:49:36.715Z,4.00
2023-03-17T08:52:03.210Z,3.20
2023-03-17T08:54:29.585Z,3.40
2023-03-17T08:56:57.389Z,2.90
2023-03-17T08:59:23.493Z,3.20
2023-03-17T09:01:49.808Z,3.23
2023-03-17T09:04:16.200Z,3.23
2023-03-17T09:06:51.907Z,2.97
2023-03-17T09:09:27.856Z,2.80
2023-03-17T09:11:53.911Z,2.87
2023-03-17T09:14:20.023Z,2.80
2023-03-17T09:16:48.029Z,2.97
2023-03-17T09:19:15.853Z,3.37
2023-03-17T09:21:42.036Z,2.97
2023-03-17T09:24:08.239Z,3.10
2023-03-17T09:26:34.307Z,3.00
2023-03-17T09:29:02.004Z,3.00
2023-03-17T09:31:29.233Z,2.90
2023-03-17T09:33:55.383Z,2.33
2023-03-17T09:36:21.525Z,3.10
2023-03-17T09:38:47.813Z,2.90
2023-03-17T09:41:31.988Z,2.23
2023-03-17T09:44:03.929Z,2.90
2023-03-17T09:47:14.081Z,2.90
2023-03-17T09:49:45.797Z,3.33
2023-03-17T09:52:17.931Z,2.70
2023-03-17T09:54:47.566Z,2.80
2023-03-17T09:57:17.326Z,3.10
2023-03-17T09:59:46.634Z,2.70
2023-03-17T10:02:26.958Z,3.03
2023-03-17T10:04:53.306Z,2.90
2023-03-17T10:07:26.338Z,3.30
2023-03-17T10:10:00.569Z,2.77
2023-03-17T10:12:54.663Z,3.10
2023-03-17T10:15:23.527Z,2.43
2023-03-17T10:17:51.636Z,2.90
2023-03-17T10:20:22.971Z,2.77
2023-03-17T10:22:52.963Z,2.20
2023-03-17T10:25:31.361Z,2.70
2023-03-17T10:28:19.126Z,2.80
2023-03-17T10:30:45.298Z,2.77
2023-03-17T10:33:11.910Z,2.63
2023-03-17T10:35:38.756Z,2.60
2023-03-17T10:38:22.502Z,3.47
2023-03-17T10:41:00.005Z,2.37
2023-03-17T10:43:31.522Z,2.40
2023-03-17T10:46:03.594Z,2.60
2023-03-17T10:48:34.681Z,2.93
2023-03-17T10:51:06.019Z,2.80
2023-03-17T10:53:42.654Z,2.73
2023-03-17T10:56:09.668Z,2.90
2023-03-17T10:58:40.947Z,3.00
2023-03-17T11:01:28.784Z,3.43
2023-03-17T11:03:55.256Z,2.30
2023-03-17T11:06:41.932Z,2.60
2023-03-17T11:09:10.311Z,2.63
2023-03-17T11:11:48.129Z,2.50
2023-03-17T11:14:19.095Z,2.67
2023-03-17T11:17:01.820Z,2.47
2023-03-17T11:20:04.790Z,2.40
2023-03-17T11:22:42.266Z,1.63
2023-03-17T11:25:19.362Z,2.20
2023-03-17T11:27:53.363Z,2.10
2023-03-17T11:30:34.970Z,2.53
2023-03-17T11:33:13.228Z,2.70
2023-03-17T11:35:52.350Z,2.80
2023-03-17T11:38:21.526Z,2.03
2023-03-17T11:40:59.785Z,2.40
2023-03-17T11:43:28.893Z,2.07
2023-03-17T11:46:11.176Z,2.47
2023-03-17T11:48:52.329Z,2.00
2023-03-17T11:51:29.695Z,2.20
2023-03-17T11:54:04.852Z,2.00
2023-03-17T11:56:51.692Z,1.93
2023-03-17T11:59:59.346Z,2.03
2023-03-17T12:02:38.699Z,2.33
2023-03-17T12:05:09.072Z,2.10
2023-03-17T12:07:38.211Z,1.90
2023-03-17T12:10:23.260Z,2.27
2023-03-17T12:12:59.156Z,2.23
2023-03-17T12:15:30.095Z,1.90
2023-03-17T12:18:09.572Z,2.53
2023-03-17T12:20:42.229Z,2.27
2023-03-17T12:23:34.035Z,2.33
2023-03-17T12:26:07.111Z,2.00
2023-03-17T12:28:48.332Z,2.27
2023-03-17T12:31:35.441Z,2.10
2023-03-17T12:34:38.776Z,1.87
2023-03-17T12:37:05.008Z,1.80
2023-03-17T12:39:33.109Z,1.53
2023-03-17T12:42:27.103Z,1.33
2023-03-17T12:45:27.271Z,1.30
2023-03-17T12:48:30.896Z,1.63
2023-03-17T12:51:21.627Z,1.63
2023-03-17T12:53:49.983Z,1.43
2023-03-17T12:56:26.710Z,1.80
2023-03-17T12:58:54.454Z,1.40
2023-03-17T13:01:26.170Z,1.77
2023-03-17T13:04:02.682Z,1.40
2023-03-17T13:06:38.052Z,1.00
2023-03-17T13:09:37.785Z,1.20
2023-03-17T13:12:06.034Z,1.00
2023-03-17T13:14:51.059Z,1.70
2023-03-17T13:17:17.186Z,1.47
2023-03-17T13:19:56.046Z,1.27
2023-03-17T13:22:22.064Z,1.20
2023-03-17T13:24:52.483Z,0.97
2023-03-17T13:27:31.134Z,1.00
2023-03-17T13:29:58.821Z,1.40
2023-03-17T13:32:24.900Z,1.40
2023-03-17T13:34:53.192Z,1.93
2023-03-17T13:37:33.140Z,1.20
2023-03-17T13:39:59.186Z,1.20
2023-03-17T13:42:25.348Z,1.27
2023-03-17T13:45:07.272Z,1.17
2023-03-17T13:47:41.469Z,1.30
2023-03-17T13:50:30.228Z,1.40
2023-03-17T13:53:01.215Z,1.47
2023-03-17T13:55:38.025Z,1.20
2023-03-17T13:58:09.229Z,1.00
2023-03-17T14:00:42.930Z,1.37
2023-03-17T14:03:18.985Z,1.40
2023-03-17T14:05:51.962Z,1.50
2023-03-17T14:08:28.921Z,1.27
2023-03-17T14:11:01.492Z,1.43
2023-03-17T14:13:42.852Z,1.30
2023-03-17T14:16:11.855Z,1.33
2023-03-17T14:18:40.030Z,1.60
2023-03-17T14:21:17.727Z,1.37
2023-03-17T14:23:55.272Z,1.20
2023-03-17T14:26:26.903Z,1.20
2023-03-17T14:28:53.132Z,1.20
2023-03-17T14:31:24.611Z,1.10
2023-03-17T14:33:54.065Z,1.60
2023-03-17T14:36:20.243Z,1.40
2023-03-17T14:38:54.274Z,1.10
2023-03-17T14:41:22.409Z,1.40
2023-03-17T14:43:51.616Z,1.53
2023-03-17T14:46:20.755Z,1.50
2023-03-17T14:48:49.565Z,1.80
2023-03-17T14:51:35.464Z,1.47
2023-03-17T14:54:04.185Z,1.53
2023-03-17T14:56:51.420Z,1.43
2023-03-17T14:59:18.443Z,1.40
2023-03-17T15:01:48.848Z,1.50
2023-03-17T15:04:24.128Z,1.70
2023-03-17T15:06:52.932Z,1.73
2023-03-17T15:09:25.496Z,1.27
2023-03-17T15:11:54.597Z,1.50
2023-03-17T15:14:33.587Z,1.77
2023-03-17T15:17:02.579Z,1.37
2023-03-17T15:19:40.723Z,1.27
2023-03-17T15:22:25.708Z,1.43
2023-03-17T15:25:13.768Z,1.90
2023-03-17T15:27:39.922Z,1.53
2023-03-17T15:30:06.739Z,1.43
2023-03-17T15:32:33.108Z,1.40
2023-03-17T15:34:59.437Z,1.43
2023-03-17T15:37:27.849Z,1.50
2023-03-17T15:39:56.991Z,1.90
2023-03-17T15:42:29.837Z,1.40
2023-03-17T15:44:56.317Z,1.50
2023-03-17T15:47:25.742Z,1.20
2023-03-17T15:49:56.486Z,2.00
2023-03-17T15:52:24.695Z,1.37
2023-03-17T15:54:52.468Z,1.40
2023-03-17T15:57:18.596Z,1.73
2023-03-17T15:59:44.776Z,1.30
2023-03-17T16:02:30.985Z,1.40
2023-03-17T16:04:58.180Z,1.70
2023-03-17T16:07:25.316Z,1.23
2023-03-17T16:09:51.497Z,1.60
2023-03-17T16:12:17.848Z,1.80
2023-03-17T16:14:44.011Z,1.00
2023-03-17T16:17:21.136Z,1.60
2023-03-17T16:19:47.352Z,1.60
2023-03-17T16:22:34.980Z,1.60
2023-03-17T16:25:02.080Z,1.30
2023-03-17T16:27:28.201Z,1.80
2023-03-17T16:29:54.281Z,1.57
2023-03-17T16:32:20.645Z,1.20
2023-03-17T16:34:47.202Z,1.87
2023-03-17T16:37:16.407Z,1.70
2023-03-17T16:39:42.556Z,1.40
2023-03-17T16:42:21.341Z,1.73
2023-03-17T16:44:47.431Z,2.67
2023-03-17T16:47:14.132Z,2.60
2023-03-17T16:49:40.213Z,1.73
2023-03-17T16:52:06.362Z,2.30
2023-03-17T16:54:32.817Z,1.60
2023-03-17T16:56:59.629Z,1.50
2023-03-17T16:59:30.457Z,1.73
2023-03-17T17:01:57.368Z,1.60
2023-03-17T17:04:23.731Z,1.90
2023-03-17T17:06:49.841Z,1.70
2023-03-17T17:09:15.914Z,1.63
2023-03-17T17:11:42.238Z,2.03
2023-03-17T17:14:08.348Z,1.87
2023-03-17T17:16:35.870Z,2.10
2023-03-17T17:19:03.071Z,2.00
2023-03-17T17:21:30.387Z,2.20
2023-03-17T17:23:57.974Z,2.13
2023-03-17T17:26:24.049Z,2.00
2023-03-17T17:28:50.183Z,2.27
2023-03-17T17:31:16.343Z,2.33
2023-03-17T17:33:42.469Z,2.07
2023-03-17T17:36:13.471Z,2.60
2023-03-17T17:38:39.717Z,2.90
2023-03-17T17:41:08.193Z,1.90
2023-03-17T17:43:34.479Z,2.47
2023-03-17T17:46:00.954Z,2.40
2023-03-17T17:48:27.490Z,2.30
2023-03-17T17:50:54.971Z,2.10
2023-03-17T17:53:21.234Z,2.20
2023-03-17T17:55:48.951Z,1.83
2023-03-17T17:58:16.865Z,1.97
2023-03-17T18:00:43.168Z,1.87
2023-03-17T18:03:09.406Z,1.90
2023-03-17T18:05:36.244Z,2.00
2023-03-17T18:08:03.999Z,2.00
2023-03-17T18:10:30.775Z,2.43
2023-03-17T18:12:57.265Z,2.17
2023-03-17T18:15:25.764Z,2.33
2023-03-17T18:17:52.146Z,3.07
2023-03-17T18:20:20.940Z,3.13
2023-03-17T18:22:47.331Z,2.13
2023-03-17T18:25:16.556Z,2.60
2023-03-17T18:27:43.140Z,2.53
2023-03-17T18:30:12.620Z,2.50
2023-03-17T18:32:39.466Z,2.13
2023-03-17T18:35:11.598Z,2.30
2023-03-17T18:37:37.740Z,2.37
2023-03-17T18:40:15.373Z,2.33
2023-03-17T18:42:43.273Z,2.17
2023-03-17T18:45:10.911Z,2.20
2023-03-17T18:47:38.279Z,2.33
2023-03-17T18:50:06.331Z,2.00
2023-03-17T18:52:34.161Z,2.50
2023-03-17T18:55:00.432Z,2.23
2023-03-17T18:57:26.964Z,2.57
2023-03-17T18:59:53.610Z,3.30
2023-03-17T19:02:20.409Z,2.47
2023-03-17T19:04:47.150Z,2.87
2023-03-17T19:07:14.071Z,2.33
2023-03-17T19:09:40.606Z,2.30
2023-03-17T19:12:07.148Z,2.80
2023-03-17T19:14:34.055Z,2.63
2023-03-17T19:17:00.359Z,2.10
2023-03-17T19:19:26.704Z,2.80
2023-03-17T19:21:52.896Z,2.33
2023-03-17T19:24:19.211Z,2.50
2023-03-17T19:26:45.428Z,2.50
2023-03-17T19:29:11.515Z,2.70
2023-03-17T19:31:41.845Z,2.47
2023-03-17T19:34:09.152Z,2.90
2023-03-17T19:36:36.460Z,2.23
2023-03-17T19:39:08.026Z,2.80
2023-03-17T19:41:34.608Z,2.20
2023-03-17T19:44:01.493Z,2.27
2023-03-17T19:46:28.401Z,2.37
2023-03-17T19:48:57.946Z,1.93
2023-03-17T19:51:25.294Z,7.53
2023-03-17T19:53:51.362Z,2.23
2023-03-17T19:56:18.234Z,2.20
2023-03-17T19:58:44.817Z,2.73
2023-03-17T20:01:11.343Z,1.63
2023-03-17T20:03:41.624Z,1.83
2023-03-17T20:06:08.815Z,2.40
2023-03-17T20:08:35.662Z,1.90
2023-03-17T20:11:02.000Z,2.20
2023-03-17T20:13:28.068Z,2.33
2023-03-17T20:15:54.141Z,2.30
2023-03-17T20:18:20.429Z,2.30
2023-03-17T20:20:53.291Z,2.33
2023-03-17T20:23:20.920Z,2.00
2023-03-17T20:25:48.705Z,2.40
2023-03-17T20:28:18.504Z,2.40
2023-03-17T20:30:44.739Z,2.40
2023-03-17T20:33:11.844Z,2.23
2023-03-17T20:35:40.553Z,6.70
2023-03-17T20:38:07.549Z,2.23
2023-03-17T20:40:33.789Z,2.00
2023-03-17T20:43:00.265Z,2.80
2023-03-17T20:45:26.819Z,2.27
2023-03-17T20:47:53.730Z,2.33
2023-03-17T20:50:20.413Z,1.87
2023-03-17T20:52:47.116Z,1.97
2023-03-17T20:55:13.398Z,1.97
2023-03-17T20:57:40.720Z,2.17
2023-03-17T21:00:11.851Z,2.40
2023-03-17T21:02:38.657Z,2.20
2023-03-17T21:05:06.677Z,2.50
2023-03-17T21:07:33.101Z,2.40
2023-03-17T21:10:01.315Z,2.17
2023-03-17T21:12:27.441Z,2.07
2023-03-17T21:14:53.528Z,1.87
2023-03-17T21:17:19.931Z,2.00
2023-03-17T21:19:46.714Z,2.60
2023-03-17T21:22:12.895Z,2.50
2023-03-17T21:24:39.222Z,2.07
2023-03-17T21:27:07.524Z,2.00
2023-03-17T21:29:34.238Z,2.03
2023-03-17T21:32:00.958Z,2.33
2023-03-17T21:34:29.284Z,2.63
2023-03-17T21:36:56.571Z,1.90
2023-03-17T21:39:23.664Z,1.77
2023-03-17T21:41:50.248Z,1.90
2023-03-17T21:44:17.613Z,2.50
2023-03-17T21:46:45.184Z,2.40
2023-03-17T21:49:13.599Z,2.27
2023-03-17T21:51:41.938Z,1.90
2023-03-17T21:54:08.335Z,2.30
2023-03-17T21:56:34.424Z,2.20
2023-03-17T21:59:00.625Z,2.50
2023-03-17T22:01:27.880Z,2.50
2023-03-17T22:03:54.770Z,2.10
2023-03-17T22:06:21.085Z,2.20
2023-03-17T22:08:48.069Z,1.93
2023-03-17T22:11:19.001Z,4.43
2023-03-17T22:13:45.465Z,4.67
2023-03-17T22:16:12.329Z,4.07
2023-03-17T22:18:39.159Z,4.53
2023-03-17T22:21:07.466Z,3.40
2023-03-17T22:23:38.976Z,3.87
2023-03-17T22:26:10.841Z,3.20
2023-03-17T22:28:37.502Z,3.33
2023-03-17T22:31:25.239Z,3.37
2023-03-17T22:33:54.854Z,3.60
2023-03-17T22:36:23.658Z,3.50
2023-03-17T22:38:50.620Z,3.30
2023-03-17T22:41:21.919Z,3.03
2023-03-17T22:43:49.376Z,3.07
2023-03-17T22:46:16.640Z,3.03
2023-03-17T22:48:45.808Z,3.07
2023-03-17T22:51:17.178Z,2.70
2023-03-17T22:53:44.697Z,3.20
2023-03-17T22:56:12.045Z,2.90
2023-03-17T22:58:38.617Z,2.73
2023-03-17T23:01:08.112Z,2.53
2023-03-17T23:03:35.134Z,3.00
2023-03-17T23:06:05.090Z,3.47
2023-03-17T23:08:34.753Z,2.50
2023-03-17T23:11:05.612Z,2.70
2023-03-17T23:13:31.978Z,2.60
2023-03-17T23:15:59.091Z,2.93
2023-03-17T23:18:25.628Z,2.83
2023-03-17T23:20:53.105Z,2.40
2023-03-17T23:23:21.007Z,2.70
2023-03-17T23:25:47.125Z,2.70
2023-03-17T23:28:14.925Z,3.07
2023-03-17T23:30:42.270Z,2.40
2023-03-17T23:33:08.893Z,2.70
2023-03-17T23:35:35.289Z,3.10
2023-03-17T23:38:03.272Z,2.27
2023-03-17T23:40:31.241Z,2.87
2023-03-17T23:43:00.412Z,2.90
2023-03-17T23:45:29.782Z,2.43
2023-03-17T23:47:56.794Z,2.90
2023-03-17T23:50:25.481Z,2.70
2023-03-17T23:52:53.441Z,2.40
2023-03-17T23:55:19.823Z,2.33
2023-03-17T23:57:45.924Z,2.73
